Time;durP1;ratioP1;P1;durP2;ratioP2;P2;SDS_P1;SDS_P2;PMS_P1;PMS_P2;Temp;Humidity;BMP_temperature;BMP_pressure;BME280_temperature;BME280_humidity;BME280_pressure;Samples;Min_cycle;Max_cycle;Signal;HPM_P1;HPM_P2
2024/04/22 00:01:07;;;;;;;15.90;1.73;;;;;;;5.47;nan;102019.31;5573570;22;20113;-96
2024/04/22 00:03:33;;;;;;;10.90;1.60;;;;;;;5.56;nan;102014.94;5203296;27;20007;-96
2024/04/22 00:05:58;;;;;;;8.27;1.98;;;;;;;5.58;nan;102023.44;5201942;27;19992;-96
2024/04/22 00:08:24;;;;;;;10.25;2.15;;;;;;;5.62;nan;102024.25;5168261;27;20010;-96
2024/04/22 00:11:02;;;;;;;10.18;2.33;;;;;;;5.45;nan;102021.88;5166682;27;20009;-94
2024/04/22 00:13:59;;;;;;;7.47;1.27;;;;;;;5.29;nan;102020.31;5166985;27;19998;-96
2024/04/22 00:17:52;;;;;;;5.97;1.25;;;;;;;5.20;nan;102012.75;5142654;27;19997;-96
2024/04/22 00:21:00;;;;;;;6.50;1.58;;;;;;;5.17;nan;102013.63;5074410;28;20009;-96
2024/04/22 00:23:46;;;;;;;3.95;1.38;;;;;;;5.03;nan;102021.44;5061602;28;20368;-96
2024/04/22 00:26:11;;;;;;;4.63;1.27;;;;;;;5.00;nan;102021.47;5068268;28;20015;-96
2024/04/22 00:29:14;;;;;;;10.77;1.48;;;;;;;5.12;nan;102039.28;5132726;27;20009;-96
2024/04/22 00:32:08;;;;;;;17.10;2.15;;;;;;;4.99;nan;102024.88;5155056;27;20021;-96
2024/04/22 00:34:37;;;;;;;11.88;1.65;;;;;;;4.99;nan;102019.75;5161262;27;20020;-96
2024/04/22 00:37:03;;;;;;;7.75;1.75;;;;;;;5.06;nan;102031.63;5158521;27;20009;-95
2024/04/22 00:39:29;;;;;;;14.10;1.98;;;;;;;4.98;nan;102023.19;5157388;27;20016;-95
2024/04/22 00:41:55;;;;;;;12.48;2.30;;;;;;;4.90;nan;102024.94;5157896;27;20001;-96
2024/04/22 00:44:31;;;;;;;6.43;2.55;;;;;;;4.96;nan;102027.47;5135954;27;20002;-96
2024/04/22 00:46:57;;;;;;;9.75;2.03;;;;;;;4.89;nan;102018.16;5156299;27;20004;-96
2024/04/22 00:49:22;;;;;;;7.68;1.45;;;;;;;4.91;nan;102013.88;5158632;27;20013;-96
2024/04/22 00:51:49;;;;;;;5.95;1.70;;;;;;;4.88;nan;102007.06;5158028;27;20004;-95
2024/04/22 00:54:15;;;;;;;4.53;1.40;;;;;;;4.99;nan;102011.25;5156637;27;20016;-96
2024/04/22 00:56:40;;;;;;;8.73;1.67;;;;;;;5.07;nan;102023.13;5152690;27;20001;-96
2024/04/22 00:59:06;;;;;;;9.45;1.40;;;;;;;5.11;nan;102017.09;5154888;27;20005;-94
2024/04/22 01:01:32;;;;;;;5.10;1.60;;;;;;;5.10;nan;102017.97;5155675;27;20440;-96
2024/04/22 01:03:58;;;;;;;6.75;1.63;;;;;;;5.02;nan;102009.47;5154788;27;20001;-95
2024/04/22 01:06:24;;;;;;;8.70;2.75;;;;;;;5.21;nan;102024.69;5156012;27;20001;-96
2024/04/22 01:08:50;;;;;;;13.32;1.92;;;;;;;5.15;nan;102011.09;5160367;27;20042;-96
2024/04/22 01:11:16;;;;;;;7.25;1.23;;;;;;;5.20;nan;102007.63;5164182;27;20033;-95
2024/04/22 01:13:42;;;;;;;11.18;2.30;;;;;;;5.15;nan;102000.84;5185133;27;20001;-96
2024/04/22 01:16:08;;;;;;;11.55;1.58;;;;;;;5.28;nan;102013.53;5155226;27;20330;-95
2024/04/22 01:18:37;;;;;;;11.68;2.10;;;;;;;5.26;nan;102003.28;5160566;27;20012;-96
2024/04/22 01:21:09;;;;;;;11.25;2.42;;;;;;;5.36;nan;102004.03;5159718;27;20074;-94
2024/04/22 01:23:36;;;;;;;6.15;1.23;;;;;;;5.42;nan;102009.09;5183068;27;20001;-96
2024/04/22 01:26:05;;;;;;;6.40;1.70;;;;;;;5.47;nan;102007.34;5157250;27;20005;-95
2024/04/22 01:28:31;;;;;;;6.32;1.30;;;;;;;5.51;nan;102013.25;5157467;27;20048;-96
2024/04/22 01:30:57;;;;;;;7.22;1.65;;;;;;;5.46;nan;102018.47;5155489;27;20011;-96
2024/04/22 01:33:23;;;;;;;12.45;2.28;;;;;;;5.55;nan;102005.53;5155208;27;20001;-95
2024/04/22 01:35:49;;;;;;;10.20;1.65;;;;;;;5.62;nan;102000.34;5163219;27;20001;-96
2024/04/22 01:38:22;;;;;;;8.48;1.80;;;;;;;5.60;nan;101999.53;5167282;27;20001;-96
2024/04/22 01:40:53;;;;;;;6.88;1.70;;;;;;;5.62;nan;101990.94;5113630;27;20001;-96
2024/04/22 01:43:18;;;;;;;7.03;1.42;;;;;;;5.67;nan;101988.34;5136993;27;20338;-95
2024/04/22 01:45:48;;;;;;;6.47;1.63;;;;;;;5.63;nan;101996.91;5138303;27;20009;-96
2024/04/22 01:48:14;;;;;;;7.75;1.55;;;;;;;5.51;nan;101998.78;5135118;27;20456;-96
2024/04/22 01:50:40;;;;;;;13.73;2.05;;;;;;;5.54;nan;101998.72;5161555;27;20008;-96
2024/04/22 01:56:01;;;;;;;9.65;1.30;;;;;;;5.58;nan;101995.28;5232013;22;20033;-96
2024/04/22 01:58:29;;;;;;;6.88;1.38;;;;;;;5.58;nan;101994.41;5530468;22;20037;-95
2024/04/22 02:53:42;;;;;;;13.70;3.35;;;;;;;5.54;nan;101957.75;6305458;22;20014;-95
2024/04/22 04:01:59;;;;;;;8.32;2.53;;;;;;;5.57;nan;101957.72;6201471;22;20021;-90
2024/04/22 06:19:26;;;;;;;18.30;2.40;;;;;;;6.54;nan;101920.47;6366779;22;20677;31
2024/04/22 06:21:56;;;;;;;11.60;2.80;;;;;;;6.47;nan;101925.72;5309890;22;20005;31
2024/04/22 06:24:21;;;;;;;8.60;2.45;;;;;;;6.49;nan;101917.13;5156294;27;20017;-95
2024/04/22 06:26:47;;;;;;;16.75;2.47;;;;;;;6.58;nan;101900.72;5229911;22;20068;-96
2024/04/22 07:40:50;;;;;;;8.52;1.77;;;;;;;8.49;nan;101849.53;5150243;27;20088;-93
2024/04/22 07:43:15;;;;;;;12.90;2.25;;;;;;;8.45;nan;101853.03;5144449;27;20017;-95
2024/04/22 07:45:40;;;;;;;13.25;2.67;;;;;;;8.53;nan;101856.28;5150576;27;20005;-94
2024/04/22 07:48:06;;;;;;;19.67;2.47;;;;;;;8.63;nan;101853.44;5144882;27;20005;-95
2024/04/22 07:50:32;;;;;;;9.98;2.65;;;;;;;8.69;nan;101851.56;5122325;27;20006;-94
2024/04/22 07:52:57;;;;;;;14.98;2.30;;;;;;;8.72;nan;101851.47;5112593;27;20008;-93
2024/04/22 07:55:24;;;;;;;14.57;2.53;;;;;;;8.74;nan;101851.44;5140598;27;20009;-95
2024/04/22 07:57:55;;;;;;;10.90;3.20;;;;;;;8.51;nan;101842.59;5156767;27;20026;-96
2024/04/22 08:00:21;;;;;;;13.05;3.33;;;;;;;8.43;nan;101831.66;5231486;22;20024;-95
2024/04/22 08:02:47;;;;;;;18.45;2.97;;;;;;;8.67;nan;101826.75;5222069;27;20027;-96
2024/04/22 08:05:13;;;;;;;8.90;2.30;;;;;;;8.85;nan;101836.56;5215201;27;20056;-96
2024/04/22 08:07:40;;;;;;;16.98;3.45;;;;;;;8.80;nan;101825.50;5197232;27;20013;-94
2024/04/22 08:10:06;;;;;;;9.38;2.75;;;;;;;9.04;nan;101839.44;5150234;27;20050;-94
2024/04/22 08:12:32;;;;;;;14.85;3.47;;;;;;;9.14;nan;101830.53;5153293;27;20013;-96
2024/04/22 08:15:07;;;;;;;12.27;2.75;;;;;;;9.05;nan;101823.09;5581583;22;20027;-96
2024/04/22 08:17:34;;;;;;;13.60;2.95;;;;;;;9.35;nan;101826.50;5307593;22;19997;-96
2024/04/22 08:20:00;;;;;;;13.05;3.72;;;;;;;9.50;nan;101830.34;5398727;22;20061;-96
2024/04/22 08:22:26;;;;;;;13.45;2.47;;;;;;;9.24;nan;101838.84;5379488;22;20026;-96
2024/04/22 08:24:53;;;;;;;10.95;2.22;;;;;;;9.55;nan;101837.94;5291426;22;20005;-94
2024/04/22 08:27:18;;;;;;;10.63;2.83;;;;;;;9.71;nan;101844.31;5193621;27;20036;-93
2024/04/22 08:29:43;;;;;;;16.83;3.38;;;;;;;9.73;nan;101846.81;5190289;27;20016;-96
2024/04/22 08:32:09;;;;;;;11.90;3.05;;;;;;;9.80;nan;101832.84;5191324;27;20000;-95
2024/04/22 08:34:34;;;;;;;15.55;2.88;;;;;;;9.43;nan;101824.53;5179368;27;20001;-96
2024/04/22 08:37:00;;;;;;;19.92;3.53;;;;;;;9.44;nan;101825.41;5156824;27;19986;-95
2024/04/22 08:39:25;;;;;;;13.13;2.75;;;;;;;9.53;nan;101829.41;5155095;27;20004;-92
2024/04/22 08:41:53;;;;;;;14.65;3.50;;;;;;;9.41;nan;101820.31;5157123;27;20001;-96
2024/04/22 08:44:19;;;;;;;12.10;3.60;;;;;;;9.44;nan;101825.41;5158879;27;20000;-96
2024/04/22 08:46:45;;;;;;;10.63;2.35;;;;;;;9.65;nan;101818.72;5128749;27;20076;-96
2024/04/22 08:49:11;;;;;;;14.63;4.32;;;;;;;9.59;nan;101811.19;5161243;27;20004;-96
2024/04/22 08:51:41;;;;;;;13.70;2.53;;;;;;;9.86;nan;101818.03;5155190;27;20021;-96
2024/04/22 08:54:07;;;;;;;11.95;2.95;;;;;;;9.82;nan;101810.44;5161662;27;20442;-96
2024/04/22 08:56:34;;;;;;;13.05;3.13;;;;;;;9.99;nan;101809.91;5127581;27;20005;-96
2024/04/22 08:59:00;;;;;;;10.73;2.50;;;;;;;9.99;nan;101813.31;5127622;27;20029;-95
2024/04/22 09:01:29;;;;;;;13.07;2.83;;;;;;;10.06;nan;101819.94;5146552;27;20009;-95
2024/04/22 09:03:54;;;;;;;10.55;2.70;;;;;;;10.40;nan;101824.00;5169880;27;20033;-95
2024/04/22 09:06:19;;;;;;;14.27;2.47;;;;;;;10.19;nan;101817.84;5179914;27;20020;-95
2024/04/22 09:08:46;;;;;;;12.15;2.78;;;;;;;10.63;nan;101812.03;5170892;27;20084;-93
2024/04/22 09:11:21;;;;;;;12.25;3.13;;;;;;;10.75;nan;101813.34;5199486;27;20011;-94
2024/04/22 09:13:58;;;;;;;13.13;2.83;;;;;;;10.40;nan;101812.84;5133436;27;20001;-94
2024/04/22 09:16:23;;;;;;;12.90;2.50;;;;;;;10.27;nan;101810.66;5177419;27;20102;-96
2024/04/22 09:18:49;;;;;;;10.43;2.60;;;;;;;9.95;nan;101810.88;5174862;27;20005;-94
2024/04/22 09:21:16;;;;;;;8.13;2.85;;;;;;;10.02;nan;101812.38;5158475;27;20060;-95
2024/04/22 09:23:42;;;;;;;12.20;2.92;;;;;;;10.15;nan;101808.50;5149729;27;20076;-96
2024/04/22 09:26:07;;;;;;;13.98;3.47;;;;;;;10.43;nan;101799.84;5148629;27;20401;-96
2024/04/22 09:28:37;;;;;;;11.63;3.42;;;;;;;10.24;nan;101799.59;5154395;27;20081;-95
2024/04/22 09:31:04;;;;;;;14.68;3.13;;;;;;;10.19;nan;101798.91;5151434;27;20001;-95
2024/04/22 09:33:36;;;;;;;10.30;3.50;;;;;;;10.12;nan;101808.63;5149649;27;20011;-96
2024/04/22 09:36:03;;;;;;;;;;;;;;;9.93;nan;101802.38;5151404;27;20419;-96
2024/04/22 09:38:29;;;;;;;18.27;3.47;;;;;;;9.93;nan;101812.69;5154925;27;20253;-95
2024/04/22 09:40:56;;;;;;;9.18;3.10;;;;;;;9.77;nan;101805.44;5146947;27;20001;-95
2024/04/22 09:43:22;;;;;;;8.68;2.65;;;;;;;9.82;nan;101811.28;5148103;27;20007;-93
2024/04/22 09:45:51;;;;;;;10.02;2.88;;;;;;;9.83;nan;101807.81;5145836;27;20360;-94
2024/04/22 09:48:17;;;;;;;8.23;2.13;;;;;;;9.79;nan;101813.97;5149539;27;20473;-94
2024/04/22 09:50:45;;;;;;;8.23;2.33;;;;;;;9.62;nan;101805.94;5150206;27;20009;-96
2024/04/22 09:53:13;;;;;;;16.42;3.08;;;;;;;9.57;nan;101800.91;5182929;27;20004;-95
2024/04/22 09:55:42;;;;;;;9.63;2.58;;;;;;;9.75;nan;101812.38;5176032;27;20001;-96
2024/04/22 09:58:09;;;;;;;10.82;3.15;;;;;;;9.67;nan;101806.63;5158021;27;20022;-96
2024/04/22 10:00:35;;;;;;;8.95;2.30;;;;;;;9.74;nan;101805.53;5158160;27;20001;-96
2024/04/22 10:03:00;;;;;;;14.13;2.55;;;;;;;9.85;nan;101806.03;5161571;27;20015;-95
2024/04/22 10:05:28;;;;;;;7.55;2.28;;;;;;;10.10;nan;101791.50;5135187;27;20413;-95
2024/04/22 10:08:30;;;;;;;22.33;4.10;;;;;;;10.16;nan;101794.69;5157183;27;19997;-94
2024/04/22 10:11:13;;;;;;;12.38;2.83;;;;;;;10.07;nan;101795.00;5148888;27;20013;-95
2024/04/22 10:13:39;;;;;;;10.80;2.42;;;;;;;10.15;nan;101790.44;5146269;27;20005;-93
2024/04/22 10:16:05;;;;;;;11.25;2.30;;;;;;;9.91;nan;101788.69;5146441;27;20001;-96
2024/04/22 10:18:30;;;;;;;12.98;2.45;;;;;;;9.93;nan;101787.75;5147184;27;20332;-95
2024/04/22 10:21:02;;;;;;;12.60;3.17;;;;;;;9.74;nan;101789.22;5152671;27;20001;-95
2024/04/22 10:23:28;;;;;;;9.50;2.55;;;;;;;9.89;nan;101775.00;5149032;27;20009;-95
2024/04/22 10:25:54;;;;;;;10.35;3.28;;;;;;;9.82;nan;101785.50;5147337;27;20001;-96
2024/04/22 10:28:19;;;;;;;6.85;2.40;;;;;;;9.98;nan;101775.53;5150460;27;19997;-96
2024/04/22 10:30:55;;;;;;;11.65;2.60;;;;;;;10.05;nan;101777.00;5156445;27;20008;-96
2024/04/22 10:33:21;;;;;;;11.18;2.60;;;;;;;9.96;nan;101781.63;5153261;27;20001;-96
2024/04/22 10:35:46;;;;;;;7.93;2.35;;;;;;;9.87;nan;101772.44;5140786;27;20020;-93
2024/04/22 10:38:12;;;;;;;11.25;2.17;;;;;;;9.94;nan;101770.53;5144572;27;20007;-94
2024/04/22 10:40:37;;;;;;;12.57;2.78;;;;;;;9.91;nan;101770.63;5147827;27;20004;-96
2024/04/22 10:43:03;;;;;;;10.68;2.40;;;;;;;9.92;nan;101773.13;5149410;27;20429;-96
2024/04/22 10:45:28;;;;;;;9.50;2.65;;;;;;;10.07;nan;101770.06;5139259;27;20361;-96
2024/04/22 10:47:53;;;;;;;14.98;2.97;;;;;;;10.20;nan;101770.47;5117189;27;20098;-96
2024/04/22 10:50:20;;;;;;;14.02;3.22;;;;;;;9.95;nan;101761.88;5114322;27;20006;-96
2024/04/22 10:52:46;;;;;;;10.60;2.58;;;;;;;10.08;nan;101764.00;5115295;27;20430;-96
2024/04/22 10:55:12;;;;;;;8.90;2.35;;;;;;;10.14;nan;101755.19;5128667;27;20441;-95
2024/04/22 10:57:38;;;;;;;9.38;2.95;;;;;;;10.32;nan;101747.78;5116887;27;20024;-94
2024/04/22 11:00:07;;;;;;;13.05;2.80;;;;;;;10.44;nan;101750.75;5127115;27;19997;-95
2024/04/22 11:02:33;;;;;;;9.85;2.25;;;;;;;10.13;nan;101756.09;5145231;27;20052;-95
2024/04/22 11:05:05;;;;;;;9.25;2.05;;;;;;;10.23;nan;101744.56;5142324;27;20081;-96
2024/04/22 11:07:33;;;;;;;;;;;;;;;10.12;nan;101744.13;5133714;27;19993;-96
2024/04/22 11:10:02;;;;;;;9.82;2.13;;;;;;;9.93;nan;101733.56;5992821;22;19935;-96
2024/04/22 11:12:28;;;;;;;9.02;2.65;;;;;;;9.99;nan;101728.19;5164504;27;20019;-96
2024/04/22 11:14:56;;;;;;;10.23;3.67;;;;;;;10.00;nan;101723.91;5623168;22;20017;-95
2024/04/22 11:25:08;;;;;;;8.55;2.10;;;;;;;10.59;nan;101720.94;5238969;22;20028;-95
2024/04/22 11:27:34;;;;;;;7.68;2.78;;;;;;;10.61;nan;101724.31;5187794;27;20012;-96
2024/04/22 11:30:01;;;;;;;9.02;2.50;;;;;;;10.38;nan;101714.00;5182485;27;20000;-96
2024/04/22 11:32:28;;;;;;;10.40;2.42;;;;;;;10.60;nan;101707.13;5181567;27;20353;-96
2024/04/22 11:34:54;;;;;;;8.15;2.63;;;;;;;10.59;nan;101714.94;5188915;27;20016;-95
2024/04/22 11:37:19;;;;;;;11.52;2.75;;;;;;;10.23;nan;101703.28;5186057;27;20061;-96
2024/04/22 11:39:50;;;;;;;15.90;3.25;;;;;;;10.31;nan;101694.47;5182631;27;20008;-95
2024/04/22 11:42:23;;;;;;;7.07;2.42;;;;;;;10.32;nan;101696.16;5180402;27;20004;-96
2024/04/22 11:44:50;;;;;;;14.45;2.80;;;;;;;10.36;nan;101710.63;5185376;27;20009;-93
2024/04/22 11:47:16;;;;;;;10.48;2.45;;;;;;;10.48;nan;101712.75;5179052;27;20004;-92
2024/04/22 11:49:41;;;;;;;12.30;3.10;;;;;;;10.38;nan;101711.41;5183608;27;20000;-94
2024/04/22 11:54:46;;;;;;;15.77;3.42;;;;;;;10.04;nan;101692.75;5211241;22;20045;-96
2024/04/22 11:57:11;;;;;;;8.43;3.33;;;;;;;10.43;nan;101694.84;5180420;27;20009;-95
2024/04/22 11:59:37;;;;;;;11.50;3.40;;;;;;;10.14;nan;101703.59;5160349;27;20020;-96
2024/04/22 12:02:02;;;;;;;12.98;4.07;;;;;;;10.37;nan;101695.09;5154960;27;20528;-96
2024/04/22 12:04:28;;;;;;;11.55;3.42;;;;;;;10.51;nan;101704.91;5152153;27;20862;-96
2024/04/22 12:06:53;;;;;;;14.00;3.22;;;;;;;10.67;nan;101703.44;5153385;27;20017;-95
2024/04/22 12:09:18;;;;;;;9.68;3.70;;;;;;;10.58;nan;101701.19;5155536;27;20017;-96
2024/04/22 12:11:44;;;;;;;9.32;3.17;;;;;;;10.79;nan;101691.78;5176005;27;20444;-96
2024/04/22 12:14:09;;;;;;;15.43;3.42;;;;;;;10.76;nan;101693.66;5285224;22;20016;-95
2024/04/22 12:16:34;;;;;;;12.32;4.30;;;;;;;10.41;nan;101688.06;5187596;27;20470;-96
2024/04/22 12:19:00;;;;;;;12.30;4.43;;;;;;;10.35;nan;101685.72;5188228;27;20004;-96
2024/04/22 12:21:25;;;;;;;10.00;3.80;;;;;;;10.34;nan;101691.75;5192203;27;20066;-96
2024/04/22 12:23:51;;;;;;;12.13;4.00;;;;;;;10.20;nan;101664.69;5315203;22;20087;-96
2024/04/22 12:26:16;;;;;;;10.50;3.33;;;;;;;9.76;nan;101672.25;5196791;27;20053;-95
2024/04/22 12:28:42;;;;;;;12.30;4.32;;;;;;;10.05;nan;101678.16;5192746;27;20005;-94
2024/04/22 12:33:44;;;;;;;14.23;4.00;;;;;;;10.15;nan;101682.09;2171428;22;20212;-94
2024/04/22 12:36:15;;;;;;;14.77;4.72;;;;;;;10.04;nan;101660.97;5367352;22;20020;-96
2024/04/22 12:41:12;;;;;;;;;;;;;;;10.22;nan;101669.81;5166882;27;20102;-96
2024/04/22 12:43:38;;;;;;;16.48;4.47;;;;;;;9.98;nan;101650.91;5172648;27;19936;-96
2024/04/22 12:46:04;;;;;;;15.30;4.65;;;;;;;9.89;nan;101653.78;5190916;27;20006;-96
2024/04/22 12:51:13;;;;;;;17.95;4.75;;;;;;;9.68;nan;101648.50;5153286;27;20016;-96
2024/04/22 12:53:39;;;;;;;13.32;5.47;;;;;;;9.42;nan;101649.38;5127089;27;20341;-95
2024/04/22 12:56:05;;;;;;;13.15;4.65;;;;;;;9.42;nan;101657.09;5119021;27;20013;-93
2024/04/22 12:58:36;;;;;;;11.43;4.47;;;;;;;9.36;nan;101646.97;5136104;27;20519;-96
2024/04/22 13:01:02;;;;;;;10.43;4.57;;;;;;;9.57;nan;101648.00;5148909;27;20000;-94
2024/04/22 13:03:28;;;;;;;19.55;4.90;;;;;;;9.82;nan;101635.09;5184636;27;20000;-94
2024/04/22 13:05:53;;;;;;;15.57;5.05;;;;;;;10.07;nan;101645.38;5141672;27;20349;-95
2024/04/22 13:08:19;;;;;;;10.52;4.38;;;;;;;10.22;nan;101642.25;5149785;27;20020;-95
2024/04/22 13:10:44;;;;;;;11.88;5.07;;;;;;;10.25;nan;101638.72;5153866;27;20001;-96
2024/04/22 13:13:09;;;;;;;13.13;4.75;;;;;;;10.22;nan;101639.69;5155183;27;20015;-96
2024/04/22 13:15:36;;;;;;;21.40;6.35;;;;;;;10.21;nan;101635.41;5159212;27;20461;-96
2024/04/22 13:18:01;;;;;;;13.65;4.80;;;;;;;10.27;nan;101635.19;5158739;27;20001;-96
2024/04/22 13:20:27;;;;;;;19.05;4.55;;;;;;;10.35;nan;101632.34;5157126;27;20001;-95
2024/04/22 13:22:52;;;;;;;9.27;4.35;;;;;;;10.36;nan;101625.44;5333751;22;20020;-96
2024/04/22 13:25:18;;;;;;;12.60;3.60;;;;;;;10.59;nan;101622.84;5188255;27;20061;-96
2024/04/22 13:27:43;;;;;;;9.88;4.28;;;;;;;10.58;nan;101609.97;5174883;27;20005;-96
2024/04/22 13:30:12;;;;;;;11.45;4.13;;;;;;;10.63;nan;101608.94;5152582;27;20049;-96
2024/04/22 13:32:45;;;;;;;13.32;5.10;;;;;;;10.59;nan;101622.84;5154824;27;20013;-96
2024/04/22 13:35:12;;;;;;;15.00;4.55;;;;;;;10.63;nan;101613.22;5565794;22;20011;-96
2024/04/22 13:37:39;;;;;;;13.45;5.05;;;;;;;10.38;nan;101624.50;5246954;22;20008;-92
2024/04/22 13:40:06;;;;;;;12.25;4.65;;;;;;;10.40;nan;101624.44;5175575;27;20020;-95
2024/04/22 13:42:31;;;;;;;10.30;4.80;;;;;;;10.30;nan;101612.78;5177472;27;20009;-93
2024/04/22 13:45:04;;;;;;;15.57;5.40;;;;;;;10.14;nan;101615.88;5180269;27;20088;-95
2024/04/22 13:47:31;;;;;;;14.18;4.97;;;;;;;10.15;nan;101590.94;5250470;22;20061;-96
2024/04/22 13:49:57;;;;;;;14.43;5.82;;;;;;;9.98;nan;101601.88;5190950;27;20003;-94
2024/04/22 13:52:25;;;;;;;9.48;5.25;;;;;;;9.99;nan;101585.50;5188537;27;20108;-94
2024/04/22 13:54:51;;;;;;;11.20;5.10;;;;;;;9.96;nan;101588.19;5187533;27;20001;-94
2024/04/22 14:04:57;;;;;;;10.77;4.97;;;;;;;10.11;nan;101587.63;5165570;27;20027;-95
2024/04/22 14:07:22;;;;;;;11.73;5.10;;;;;;;10.10;nan;101583.38;5152418;27;20007;-94
2024/04/22 14:09:49;;;;;;;9.48;3.85;;;;;;;10.21;nan;101591.53;5435314;22;20024;-94
2024/04/22 14:12:15;;;;;;;13.13;5.03;;;;;;;10.18;nan;101586.50;5186638;27;20003;-96
2024/04/22 14:22:19;;;;;;;10.70;4.28;;;;;;;10.19;nan;101564.13;5464277;22;20324;-96
2024/04/22 14:24:45;;;;;;;13.70;5.05;;;;;;;10.18;nan;101570.19;5244136;22;20012;-95
2024/04/22 14:27:10;;;;;;;11.43;5.03;;;;;;;10.23;nan;101574.28;5173185;27;20101;-96
2024/04/22 14:29:36;;;;;;;14.25;5.88;;;;;;;10.23;nan;101574.28;5151591;27;20077;-94
2024/04/22 14:32:01;;;;;;;11.48;4.90;;;;;;;10.12;nan;101566.13;5148272;27;20153;-94
2024/04/22 14:34:27;;;;;;;13.90;5.45;;;;;;;10.06;nan;101566.31;5152585;27;20005;-96
2024/04/22 14:36:55;;;;;;;11.90;4.93;;;;;;;10.04;nan;101563.78;5159451;27;20337;-96
2024/04/22 14:39:21;;;;;;;8.02;4.38;;;;;;;10.08;nan;101559.38;5157604;27;20012;-96
2024/04/22 14:41:47;;;;;;;11.07;5.20;;;;;;;10.04;nan;101553.47;5158251;27;20001;-96
2024/04/22 14:44:12;;;;;;;13.45;4.72;;;;;;;10.23;nan;101552.78;5156186;27;20016;-96
2024/04/22 14:46:38;;;;;;;11.88;5.72;;;;;;;10.21;nan;101555.41;5159218;27;20009;-96
2024/04/22 14:49:08;;;;;;;12.50;5.25;;;;;;;10.16;nan;101549.59;5161171;27;20009;-95
2024/04/22 14:51:40;;;;;;;12.93;5.22;;;;;;;10.19;nan;101541.75;5139814;27;20013;-96
2024/04/22 14:54:19;;;;;;;10.13;5.07;;;;;;;10.07;nan;101543.06;5166632;27;20050;-96
2024/04/22 14:56:46;;;;;;;15.50;5.75;;;;;;;10.03;nan;101538.91;5167177;27;19993;-96
2024/04/22 14:59:12;;;;;;;15.27;5.75;;;;;;;10.00;nan;101530.47;5492696;22;20019;-96
2024/04/22 15:01:38;;;;;;;12.88;5.50;;;;;;;10.02;nan;101546.69;5203847;22;20329;-95
2024/04/22 15:04:03;;;;;;;14.43;5.30;;;;;;;9.78;nan;101526.09;5196373;27;20052;-95
2024/04/22 15:06:28;;;;;;;15.73;5.22;;;;;;;9.81;nan;101533.72;5187098;27;20013;-92
2024/04/22 15:08:54;;;;;;;12.73;5.45;;;;;;;9.79;nan;101532.09;5151448;27;20001;-96
2024/04/22 15:11:20;;;;;;;11.38;5.97;;;;;;;9.75;nan;101526.19;5148047;27;20012;-95
2024/04/22 15:13:45;;;;;;;15.20;5.50;;;;;;;9.79;nan;101540.66;5146748;27;20009;-94
2024/04/22 15:16:13;;;;;;;12.40;5.07;;;;;;;9.65;nan;101530.00;5145250;27;20037;-95
2024/04/22 15:18:39;;;;;;;12.85;6.32;;;;;;;9.50;nan;101541.69;5143533;27;19998;-95
2024/04/22 15:21:05;;;;;;;13.23;5.68;;;;;;;9.57;nan;101539.75;5140853;27;20005;-96
2024/04/22 15:23:31;;;;;;;13.07;6.03;;;;;;;9.68;nan;101542.81;5141139;27;20019;-94
2024/04/22 15:25:57;;;;;;;9.98;5.30;;;;;;;9.79;nan;101535.50;5159372;27;20012;-95
2024/04/22 15:28:22;;;;;;;12.93;5.38;;;;;;;9.87;nan;101524.91;5143294;27;20001;-94
2024/04/22 15:30:47;;;;;;;12.88;5.97;;;;;;;9.92;nan;101522.97;5141248;27;20379;-94
2024/04/22 15:33:14;;;;;;;9.45;5.00;;;;;;;9.83;nan;101531.09;5144086;27;20337;-96
2024/04/22 15:35:42;;;;;;;12.43;6.55;;;;;;;9.63;nan;101526.63;5143272;27;20749;-95
2024/04/22 15:38:07;;;;;;;12.93;6.00;;;;;;;9.49;nan;101516.00;5142874;27;20776;-95
2024/04/22 15:40:33;;;;;;;16.85;6.32;;;;;;;9.39;nan;101523.22;5142473;27;20475;-94
2024/04/22 15:42:58;;;;;;;10.27;5.45;;;;;;;9.46;nan;101523.81;5145101;27;20016;-94
2024/04/22 15:45:26;;;;;;;12.60;5.22;;;;;;;9.43;nan;101525.59;5120082;27;20005;-96
2024/04/22 15:47:53;;;;;;;9.68;5.57;;;;;;;9.42;nan;101513.63;5324426;22;20776;-96
2024/04/22 15:50:19;;;;;;;11.40;6.07;;;;;;;9.40;nan;101504.28;5187847;27;20053;-96
2024/04/22 15:52:45;;;;;;;12.80;5.28;;;;;;;9.39;nan;101500.84;5192450;27;20004;-96
2024/04/22 15:55:10;;;;;;;13.70;6.07;;;;;;;9.46;nan;101510.94;5157557;27;20013;-93
2024/04/22 15:57:36;;;;;;;13.40;6.60;;;;;;;9.43;nan;101507.56;5149253;27;20005;-94
2024/04/22 16:00:01;;;;;;;13.35;6.45;;;;;;;9.26;nan;101517.63;5166062;27;20079;-94
2024/04/22 16:02:27;;;;;;;14.18;7.15;;;;;;;9.45;nan;101511.84;5166630;27;20053;-94
2024/04/22 16:04:52;;;;;;;11.43;6.60;;;;;;;9.52;nan;101515.88;5174044;27;20028;-96
2024/04/22 16:07:17;;;;;;;13.32;6.57;;;;;;;9.62;nan;101515.47;5174919;27;20462;-96
2024/04/22 16:09:45;;;;;;;13.00;7.03;;;;;;;9.57;nan;101516.56;5148936;27;20016;-93
2024/04/22 16:12:10;;;;;;;13.98;7.25;;;;;;;9.54;nan;101519.25;5169207;27;20015;-94
2024/04/22 16:14:36;;;;;;;11.80;6.57;;;;;;;9.55;nan;101515.75;5143124;27;20001;-94
2024/04/22 16:17:01;;;;;;;14.93;7.20;;;;;;;9.67;nan;101522.22;5145067;27;20468;-95
2024/04/22 16:19:26;;;;;;;15.65;6.93;;;;;;;9.36;nan;101511.28;5141652;27;20009;-94
2024/04/22 16:21:55;;;;;;;13.38;7.55;;;;;;;9.34;nan;101515.66;5145396;27;20005;-96
2024/04/22 16:24:21;;;;;;;9.90;6.70;;;;;;;9.43;nan;101511.88;5146808;27;20009;-93
2024/04/22 16:26:46;;;;;;;13.60;7.10;;;;;;;9.41;nan;101506.81;5175434;27;20004;-95
2024/04/22 16:29:18;;;;;;;15.40;7.47;;;;;;;9.49;nan;101503.13;5189189;27;20038;-93
2024/04/22 16:31:43;;;;;;;15.45;7.35;;;;;;;9.58;nan;101502.75;5172156;27;20016;-89
2024/04/22 16:34:08;;;;;;;21.15;7.65;;;;;;;9.60;nan;101499.22;5167207;27;20081;-94
2024/04/22 16:36:34;;;;;;;15.48;6.88;;;;;;;9.64;nan;101494.81;5176743;27;20008;-95
2024/04/22 16:38:59;;;;;;;10.98;7.03;;;;;;;9.66;nan;101493.03;5169253;27;20462;-95
2024/04/22 16:41:24;;;;;;;16.20;7.60;;;;;;;9.44;nan;101490.38;5175323;27;20340;-95
2024/04/22 16:43:50;;;;;;;14.10;7.50;;;;;;;9.40;nan;101483.66;5183473;27;19996;-95
2024/04/22 16:46:15;;;;;;;21.35;8.90;;;;;;;9.24;nan;101483.34;5211027;27;20435;-95
2024/04/22 16:48:40;;;;;;;11.48;7.63;;;;;;;9.22;nan;101474.84;5169023;27;20020;-94
2024/04/22 16:51:05;;;;;;;16.73;7.28;;;;;;;9.33;nan;101480.44;5150180;27;20009;-96
2024/04/22 16:53:31;;;;;;;16.77;7.53;;;;;;;9.42;nan;101476.72;5178680;27;20057;-94
2024/04/22 16:55:57;;;;;;;14.32;7.53;;;;;;;9.33;nan;101483.03;5186465;27;20008;-93
2024/04/22 16:58:23;;;;;;;10.90;7.05;;;;;;;9.38;nan;101465.66;5185727;27;20020;-91
2024/04/22 17:00:49;;;;;;;14.40;7.15;;;;;;;9.45;nan;101468.88;5183875;27;20380;-93
2024/04/22 17:03:15;;;;;;;13.45;7.88;;;;;;;9.40;nan;101471.59;5177586;27;20033;-96
2024/04/22 17:05:40;;;;;;;10.00;6.88;;;;;;;9.36;nan;101462.31;5176781;27;20000;-93
2024/04/22 17:08:06;;;;;;;8.82;5.78;;;;;;;9.46;nan;101460.25;5174787;27;19997;-94
2024/04/22 17:10:31;;;;;;;11.95;6.45;;;;;;;9.46;nan;101457.69;5173330;27;20448;-92
2024/04/22 17:12:57;;;;;;;7.70;5.57;;;;;;;9.36;nan;101452.03;5177055;27;20018;-94
2024/04/22 17:15:22;;;;;;;11.25;5.60;;;;;;;9.29;nan;101455.72;5177331;27;20015;-92
2024/04/22 17:17:47;;;;;;;9.32;5.95;;;;;;;9.19;nan;101450.03;5177875;27;20009;-91
2024/04/22 17:20:13;;;;;;;8.27;5.32;;;;;;;9.29;nan;101460.88;5177848;27;20011;-96
2024/04/22 17:22:42;;;;;;;14.48;6.35;;;;;;;9.10;nan;101455.50;5179373;27;20005;-93
2024/04/22 17:25:07;;;;;;;8.75;5.32;;;;;;;9.09;nan;101458.13;5176616;27;20525;-93
2024/04/22 17:27:32;;;;;;;9.73;6.75;;;;;;;9.10;nan;101445.22;5178233;27;20023;-90
2024/04/22 17:29:58;;;;;;;9.73;6.65;;;;;;;9.15;nan;101445.88;5176976;27;20004;-94
2024/04/22 17:32:23;;;;;;;11.25;6.63;;;;;;;9.16;nan;101449.28;5175013;27;20452;-92
2024/04/22 17:34:48;;;;;;;10.90;7.07;;;;;;;9.02;nan;101447.19;5182300;27;20307;-93
2024/04/22 17:37:17;;;;;;;11.57;7.70;;;;;;;8.93;nan;101448.38;5179438;27;20029;-92
2024/04/22 17:39:44;;;;;;;13.02;8.05;;;;;;;8.97;nan;101449.97;5164748;27;20052;-95
2024/04/22 17:42:10;;;;;;;10.32;8.25;;;;;;;9.05;nan;101441.13;5146296;27;20373;-94
2024/04/22 17:44:35;;;;;;;10.98;7.60;;;;;;;8.92;nan;101435.53;5144472;27;20033;-93